Latest Coastal Weather Observations for Eucla

IDS60701

Issued at 1:15 am CST Saturday 23 August 2014 (issued every 10 minutes, with the page automatically refreshed every 10 minutes)

About coastal observations | Map of coastal stations | Coastal observations for SA | Marine services | Other Formats
Station Details ID: 011003 Name: EUCLA Lat: -31.68 Lon: 128.90 Height: 93.1 m
Data from the previous 72 hours. | See also: Recent months at Eucla
Date/Time
CST
Temp

°C
Wind Pressure Rain
since 9am
mm
Weather Cloud Vis
km
Sea
Height
m
Swell
Dir
 
Speed
knots
Gust
knots
hPa Trend Height
m
Period
s
Dir
23/01:00am 11.1 SSW 7 9 1024.8 - 0.0 - - - - - - -
23/12:30am 11.4 SSW 7 9 1024.8 - 0.0 - - - - - - -
23/12:00am 11.7 SSW 8 10 1024.7 - 0.0 - - - - - - -
 
Date/Time
CST
Temp

°C
Wind Pressure Rain
since 9am
mm
Weather Cloud Vis
km
Sea
Height
m
Swell
Dir
 
Speed
knots
Gust
knots
hPa Trend Height
m
Period
s
Dir
22/11:30pm 11.4 SSW 7 9 1024.4 - 0.0 - - - - - - -
22/11:00pm 12.1 SSW 7 9 1024.3 - 0.0 - - - - - - -
22/10:30pm 12.6 SSW 7 10 1024.3 - 0.0 - - - - - - -
22/10:00pm 13.2 SSW 7 9 1024.1 - 0.0 - - - - - - -
22/09:30pm 13.4 SSW 6 9 1023.8 - 0.0 - - - - - - -
22/09:00pm 13.4 SSW 6 8 1023.3 - 0.0 - - - - - - -
22/08:30pm 14.1 SSW 8 11 1023.0 - 0.0 - - - - - - -
22/08:00pm 14.6 SW 10 15 1022.5 - 0.0 - - - - - - -
22/07:30pm 15.0 SW 10 15 1021.9 - 0.0 - - - - - - -
22/07:00pm 15.5 SW 11 17 1021.5 - 0.0 - - - - - - -
22/06:30pm 16.0 SW 13 19 1021.1 - 0.0 - - - - - - -
22/06:00pm 16.4 SW 13 21 1020.5 - 0.0 - - - - - - -
22/05:30pm 16.7 SW 13 21 1019.8 - 0.0 - - - - - - -
22/05:16pm 17.0 SW 15 27 1019.4 - 0.0 - - - - - - -
22/05:00pm 17.1 SW 13 21 1019.1 - 0.0 - - - - - - -
22/04:30pm 17.4 SW 11 18 1018.5 - 0.0 Fine Cloudy 40 - - - -
22/04:00pm 17.7 SW 12 20 1017.9 - 0.0 - - - - - - -
22/03:30pm 18.4 SW 14 22 1017.8 - 0.0 - - - - - - -
22/03:00pm 18.7 SW 12 20 1017.3 - 0.0 - - - - - - -
22/02:30pm 19.7 SW 13 21 1017.1 - 0.0 - - - - - - -
22/02:08pm 20.6 SSW 16 26 1016.8 - 0.0 - - - - - - -
22/02:00pm 20.9 SSW 15 23 1016.9 - 0.0 - - - - - - -
22/01:30pm 21.9 SW 14 21 1016.8 - 0.0 - - - - - - -
22/01:00pm 22.4 SW 14 22 1016.7 - 0.0 - - - - - - -
22/12:30pm 21.4 SW 13 21 1017.1 - 0.0 - - - - - - -
22/12:00pm 22.9 SW 12 19 1016.8 - 0.0 - - - - - - -
22/11:30am 24.8 WSW 13 20 1016.6 - 0.0 - - - - - - -
22/11:00am 25.3 WNW 9 14 1016.2 - 0.0 - - - - - - -
22/10:30am 22.6 NNW 10 14 1015.7 - 0.0 Fine Partly cloudy 40 - - - -
22/10:00am 19.0 N 10 14 1015.8 - 0.0 - - - - - - -
22/09:30am 17.7 N 10 14 1015.6 - 0.0 - - - - - - -
22/09:00am 14.3 N 10 13 1015.5 - 0.0 - - - - - - -
22/08:30am 13.0 N 10 14 1015.3 - 0.0 - - - - - - -
22/08:00am 11.7 N 10 14 1015.0 - 0.0 - - - - - - -
22/07:30am 10.9 N 9 11 1014.7 - 0.0 - - - - - - -
22/07:00am 11.4 N 10 12 1014.5 - 0.0 - - - - - - -
22/06:30am 11.9 N 9 11 1014.3 - 0.0 - - - - - - -
22/06:00am 12.6 N 9 12 1014.0 - 0.0 - - - - - - -
22/05:30am 13.4 N 9 12 1013.9 - 0.0 - - - - - - -
22/05:00am 13.7 N 10 14 1014.0 - 0.0 - - - - - - -
22/04:30am 13.1 N 9 12 1014.0 - 0.0 - - - - - - -
22/04:00am 12.9 N 10 13 1014.0 - 0.0 - - - - - - -
22/03:30am 13.0 N 9 12 1014.2 - 0.0 - - - - - - -
22/03:00am 13.1 N 9 13 1014.3 - 0.0 - - - - - - -
22/02:30am 12.7 N 9 12 1014.4 - 0.0 - - - - - - -
22/02:00am 12.8 N 9 10 1014.7 - 0.0 - - - - - - -
22/01:30am 13.8 NNE 8 10 1014.9 - 0.0 - - - - - - -
22/01:00am 14.4 NNE 9 12 1015.0 - 0.0 - - - - - - -
22/12:30am 15.0 NNE 8 12 1015.1 - 0.0 - - - - - - -
22/12:00am 15.6 NNE 8 11 1015.1 - 0.0 - - - - - - -
 
Date/Time
CST
Temp

°C
Wind Pressure Rain
since 9am
mm
Weather Cloud Vis
km
Sea
Height
m
Swell
Dir
 
Speed
knots
Gust
knots
hPa Trend Height
m
Period
s
Dir
21/11:30pm 16.0 NNE 8 10 1015.3 - 0.0 - - - - - - -
21/11:00pm 16.1 NNE 8 11 1015.5 - 0.0 - - - - - - -
21/10:30pm 16.7 NE 9 12 1015.6 - 0.0 - - - - - - -
21/10:00pm 17.5 NE 9 12 1015.7 - 0.0 - - - - - - -
21/09:30pm 18.3 NE 9 13 1015.8 - 0.0 - - - - - - -
21/09:00pm 19.1 NE 8 11 1015.7 - 0.0 - - - - - - -
21/08:30pm 19.3 ENE 8 11 1015.6 - 0.0 - - - - - - -
21/08:00pm 19.3 ENE 7 9 1015.3 - 0.0 - - - - - - -
21/07:30pm 19.4 ENE 7 9 1014.9 - 0.0 - - - - - - -
21/07:00pm 20.2 E 7 9 1014.7 - 0.0 - - - - - - -
21/06:30pm 21.5 E 7 8 1014.4 - 0.0 - - - - - - -
21/06:00pm 23.0 E 7 9 1014.2 - 0.0 - - - - - - -
21/05:30pm 23.7 ESE 7 10 1014.1 - 0.0 - - - - - - -
21/05:00pm 24.6 NE 4 7 1013.9 - 0.0 - - - - - - -
21/04:30pm 25.8 NNE 6 9 1013.6 - 0.0 Fine Mostly clear 40 - - - -
21/04:00pm 24.7 NE 5 10 1013.5 - 0.0 - - - - - - -
21/03:30pm 26.0 N 6 10 1013.6 - 0.0 - - - - - - -
21/03:00pm 26.7 NNE 5 9 1013.7 - 0.0 - - - - - - -
21/02:30pm 26.3 N 6 9 1013.9 - 0.0 - - - - - - -
21/02:00pm 25.7 ENE 7 8 1014.5 - 0.0 - - - - - - -
21/01:30pm 25.4 N 10 16 1014.9 - 0.0 - - - - - - -
21/01:00pm 23.9 N 11 17 1015.4 - 0.0 - - - - - - -
21/12:30pm 22.4 N 12 18 1016.0 - 0.0 - - - - - - -
21/12:00pm 21.0 N 15 21 1016.2 - 0.0 - - - - - - -
21/11:30am 18.7 N 15 21 1016.6 - 0.0 - - - - - - -
21/11:00am 17.5 N 16 24 1017.0 - 0.0 - - - - - - -
21/10:38am 16.9 N 15 25 1017.1 - 0.0 - - - - - - -
21/10:30am 16.8 N 16 25 1017.1 - 0.0 Fine Mostly cloudy 40 - - - -
21/10:09am 16.2 N 15 25 1017.2 - 0.0 - - - - - - -
21/10:00am 15.7 NNE 17 25 1017.4 - 0.0 - - - - - - -
21/09:36am 15.2 N 15 25 1017.5 - 0.0 - - - - - - -
21/09:30am 14.4 N 14 20 1017.6 - 0.0 - - - - - - -
21/09:00am 13.9 NNE 15 25 1017.5 - 0.0 - - - - - - -
21/08:58am 14.0 NNE 15 25 1017.5 - 0.0 - - - - - - -
21/08:30am 12.9 NNE 15 21 1017.4 - 0.0 - - - - - - -
21/08:00am 11.9 NNE 15 22 1017.4 - 0.0 - - - - - - -
21/07:30am 11.3 NNE 15 23 1017.1 - 0.0 - - - - - - -
21/07:00am 11.2 NNE 15 21 1017.0 - 0.0 - - - - - - -
21/06:54am 11.1 NNE 15 25 1017.0 - 0.0 - - - - - - -
21/06:30am 11.3 NNE 15 20 1017.1 - 0.0 - - - - - - -
21/06:00am 11.5 NNE 15 21 1017.1 - 0.0 - - - - - - -
21/05:30am 11.9 NNE 16 23 1017.0 - 0.0 - - - - - - -
21/05:00am 11.4 NNE 16 22 1016.7 - 0.0 - - - - - - -
21/04:30am 11.5 NNE 15 23 1016.8 - 0.0 - - - - - - -
21/04:00am 11.9 NNE 16 22 1017.0 - 0.0 - - - - - - -
21/03:32am 12.4 NNE 15 25 1017.3 - 0.0 - - - - - - -
21/03:30am 12.5 NNE 16 25 1017.3 - 0.0 - - - - - - -
21/03:00am 13.0 NNE 15 22 1017.7 - 0.0 - - - - - - -
21/02:30am 13.1 NNE 14 21 1018.0 - 0.0 - - - - - - -
21/02:00am 12.8 NE 12 18 1018.3 - 0.0 - - - - - - -
21/01:30am 12.7 NE 11 18 1018.6 - 0.0 - - - - - - -
21/01:00am 12.7 NE 10 15 1018.8 - 0.0 - - - - - - -
21/12:30am 12.1 NE 9 12 1018.9 - 0.0 - - - - - - -
21/12:00am 12.2 ENE 9 13 1019.2 - 0.0 - - - - - - -
 
Date/Time
CST
Temp

°C
Wind Pressure Rain
since 9am
mm
Weather Cloud Vis
km
Sea
Height
m
Swell
Dir
 
Speed
knots
Gust
knots
hPa Trend Height
m
Period
s
Dir
20/11:30pm 12.5 ENE 9 13 1019.3 - 0.0 - - - - - - -
20/11:00pm 12.9 ENE 8 12 1019.5 - 0.0 - - - - - - -
20/10:30pm 13.5 ENE 10 17 1019.6 - 0.0 - - - - - - -
20/10:00pm 13.7 E 10 17 1019.5 - 0.0 - - - - - - -
20/09:30pm 14.1 E 13 20 1019.5 - 0.0 - - - - - - -
20/09:00pm 14.5 E 14 21 1019.4 - 0.0 - - - - - - -
20/08:30pm 14.8 E 13 21 1019.3 - 0.0 - - - - - - -
20/08:00pm 15.0 E 14 19 1019.2 - 0.0 - - - - - - -
20/07:30pm 15.3 E 13 19 1018.9 - 0.0 - - - - - - -
20/07:00pm 15.7 E 14 22 1018.7 - 0.0 - - - - - - -
20/06:30pm 16.2 E 14 22 1018.4 - 0.0 - - - - - - -
20/06:00pm 17.0 E 15 23 1018.0 - 0.0 - - - - - - -
20/05:30pm 17.9 E 15 22 1017.9 - 0.0 - - - - - - -
20/05:07pm 18.7 E 15 25 1017.8 - 0.0 - - - - - - -
20/05:00pm 19.0 E 15 23 1017.9 - 0.0 - - - - - - -
20/04:30pm 19.8 E 14 22 1017.9 - 0.0 Fine Mostly clear 40 - - - -
20/04:00pm 20.0 E 14 20 1017.8 - 0.0 - - - - - - -
20/03:30pm 20.3 ESE 12 18 1017.8 - 0.0 - - - - - - -
20/03:00pm 21.1 ENE 7 12 1017.8 - 0.0 - - - - - - -
20/02:30pm 23.8 NNE 7 11 1017.9 - 0.0 - - - - - - -
20/02:00pm 23.3 ENE 9 15 1018.2 - 0.0 - - - - - - -
20/01:30pm 22.8 E 9 16 1018.7 - 0.0 - - - - - - -
20/01:00pm 23.0 ENE 10 18 1019.3 - 0.0 - - - - - - -
20/12:30pm 22.2 NNE 9 16 1019.9 - 0.0 - - - - - - -
20/12:00pm 21.8 NNE 10 15 1020.3 - 0.0 - - - - - - -
20/11:30am 21.3 NNE 10 17 1020.6 - 0.0 - - - - - - -
20/11:00am 19.7 NNE 12 17 1020.9 - 0.0 - - - - - - -
20/10:30am 18.2 NNE 10 16 1021.1 - 0.0 - - - - - - -
20/10:00am 16.9 NNE 12 18 1021.2 - 0.0 - - - - - - -
20/09:30am 15.1 NNE 11 17 1021.2 - 0.0 - - - - - - -
20/09:00am 13.0 NNE 12 19 1021.0 - 0.0 - - - - - - -
20/08:30am 10.7 NNE 12 18 1020.9 - 0.0 - - - - - - -
20/08:00am 10.4 NNE 12 17 1020.6 - 0.0 - - - - - - -
20/07:30am 10.5 NNE 12 17 1020.5 - 0.0 - - - - - - -
20/07:00am 10.9 NNE 11 16 1020.2 - 0.0 - - - - - - -
20/06:30am 11.0 NNE 12 16 1020.0 - 0.0 - - - - - - -
20/06:00am 10.9 NNE 11 16 1019.8 - 0.0 - - - - - - -
20/05:30am 10.7 NNE 11 15 1019.7 - 0.0 - - - - - - -
20/05:00am 10.6 NNE 11 16 1019.6 - 0.0 - - - - - - -
20/04:30am 10.5 NNE 11 16 1019.7 - 0.0 - - - - - - -
20/04:00am 10.9 NNE 12 18 1019.5 - 0.0 - - - - - - -
20/03:30am 11.1 NNE 12 19 1019.4 - 0.0 - - - - - - -
20/03:00am 11.4 NNE 12 18 1019.8 - 0.0 - - - - - - -

Other Formats:

Comma delimited format used in spreadsheet applications
http://www.bom.gov.au/fwo/IDS60701/IDS60701.94647.axf

JavaScript Object Notation format (JSON) in row-major order
http://www.bom.gov.au/fwo/IDS60701/IDS60701.94647.json